Elkhorn, West Virginia
Current Conditions -  °F | °C
As of 10:52 AM on Sunday 25 Jan 2015 (Local Time) from KBLF Reporting Station
Clear Clear  
Wind Chill: 36°   Ceiling: Unl
Heat Index: 36°   Visibility: 10mi
Dew Point: 28°   Wind: 3mph
Humidity: 73%   Direction: 260°W
Pressure: 29.8"   Gusts: NA
Location:  37.39°N, 81.41°W
Report Text: KBLF 251552Z AUTO 26003KT 10SM CLR 02/M02 A2980 RMK AO2 SLP103 T00221022
Loading
Personal Weather Stations






























Interactive Weather Map New forecast layout! Learn more

10-Day Weather Forecast

Advertisements
Track Severe Weather on mobile